sensor_id;sensor_type;location;lat;lon;timestamp;temperature;humidity
40660;DHT22;26753;45.544;9.232;2024-01-11T10:30:19;9.40;99.90
40660;DHT22;26753;45.544;9.232;2024-01-11T10:35:15;9.80;99.90
40660;DHT22;26753;45.544;9.232;2024-01-11T10:40:16;12.20;99.90
40660;DHT22;26753;45.544;9.232;2024-01-11T10:45:20;8.80;99.90
40660;DHT22;26753;45.544;9.232;2024-01-11T10:47:55;8.60;99.90
40660;DHT22;26753;45.544;9.232;2024-01-11T10:50:27;10.30;99.90
40660;DHT22;26753;45.544;9.232;2024-01-11T10:53:29;11.10;99.90
40660;DHT22;26753;45.544;9.232;2024-01-11T10:55:59;10.90;99.90
40660;DHT22;26753;45.544;9.232;2024-01-11T10:58:26;11.90;99.90
40660;DHT22;26753;45.544;9.232;2024-01-11T11:03:23;12.70;99.90
40660;DHT22;26753;45.544;9.232;2024-01-11T11:05:54;10.10;99.90
40660;DHT22;26753;45.544;9.232;2024-01-11T11:08:22;10.30;99.90
40660;DHT22;26753;45.544;9.232;2024-01-11T11:10:53;10.70;99.90
40660;DHT22;26753;45.544;9.232;2024-01-11T11:15:48;11.80;99.90
40660;DHT22;26753;45.544;9.232;2024-01-11T11:18:17;11.20;99.90
40660;DHT22;26753;45.544;9.232;2024-01-11T11:20:44;11.70;99.90
40660;DHT22;26753;45.544;9.232;2024-01-11T11:23:11;12.40;99.90
40660;DHT22;26753;45.544;9.232;2024-01-11T11:25:42;12.50;99.90
40660;DHT22;26753;45.544;9.232;2024-01-11T11:28:11;11.80;99.90
40660;DHT22;26753;45.544;9.232;2024-01-11T11:30:38;14.00;99.90
40660;DHT22;26753;45.544;9.232;2024-01-11T11:33:24;11.80;99.90
40660;DHT22;26753;45.544;9.232;2024-01-11T11:35:54;11.00;99.90
40660;DHT22;26753;45.544;9.232;2024-01-11T11:38:22;12.40;99.90
40660;DHT22;26753;45.544;9.232;2024-01-11T11:40:50;11.90;99.90
40660;DHT22;26753;45.544;9.232;2024-01-11T11:43:17;12.90;99.90
40660;DHT22;26753;45.544;9.232;2024-01-11T11:45:44;11.80;99.90
40660;DHT22;26753;45.544;9.232;2024-01-11T11:51:21;13.10;99.90
40660;DHT22;26753;45.544;9.232;2024-01-11T11:56:14;12.20;99.90
40660;DHT22;26753;45.544;9.232;2024-01-11T11:58:42;12.10;99.90
40660;DHT22;26753;45.544;9.232;2024-01-11T12:01:08;13.10;99.90
40660;DHT22;26753;45.544;9.232;2024-01-11T12:03:36;13.60;99.80
40660;DHT22;26753;45.544;9.232;2024-01-11T12:06:06;12.60;99.50
40660;DHT22;26753;45.544;9.232;2024-01-11T12:08:33;14.50;98.80
40660;DHT22;26753;45.544;9.232;2024-01-11T12:10:59;12.90;98.10
40660;DHT22;26753;45.544;9.232;2024-01-11T12:13:25;14.10;98.30
40660;DHT22;26753;45.544;9.232;2024-01-11T12:15:52;14.50;98.30
40660;DHT22;26753;45.544;9.232;2024-01-11T12:18:18;14.40;98.40
40660;DHT22;26753;45.544;9.232;2024-01-11T12:20:44;13.10;98.10
40660;DHT22;26753;45.544;9.232;2024-01-11T12:23:10;14.00;97.30
40660;DHT22;26753;45.544;9.232;2024-01-11T12:25:36;13.70;96.80
40660;DHT22;26753;45.544;9.232;2024-01-11T12:28:02;13.90;97.40
40660;DHT22;26753;45.544;9.232;2024-01-11T12:30:28;13.70;96.30
40660;DHT22;26753;45.544;9.232;2024-01-11T12:32:57;17.90;94.60
40660;DHT22;26753;45.544;9.232;2024-01-11T12:35:23;18.10;89.50
40660;DHT22;26753;45.544;9.232;2024-01-11T12:37:59;17.30;90.50
40660;DHT22;26753;45.544;9.232;2024-01-11T12:40:27;16.20;90.80
40660;DHT22;26753;45.544;9.232;2024-01-11T12:42:53;15.80;91.60
40660;DHT22;26753;45.544;9.232;2024-01-11T12:45:20;15.70;92.00
40660;DHT22;26753;45.544;9.232;2024-01-11T12:47:46;18.00;91.40
40660;DHT22;26753;45.544;9.232;2024-01-11T12:50:12;23.80;80.80
40660;DHT22;26753;45.544;9.232;2024-01-11T12:52:42;28.10;66.70
40660;DHT22;26753;45.544;9.232;2024-01-11T12:55:08;29.80;56.90
40660;DHT22;26753;45.544;9.232;2024-01-11T12:57:43;30.80;52.80
40660;DHT22;26753;45.544;9.232;2024-01-11T13:00:16;32.50;51.30
40660;DHT22;26753;45.544;9.232;2024-01-11T13:02:42;33.90;47.50
40660;DHT22;26753;45.544;9.232;2024-01-11T13:05:11;34.70;46.50
40660;DHT22;26753;45.544;9.232;2024-01-11T13:07:37;34.40;44.10
40660;DHT22;26753;45.544;9.232;2024-01-11T13:10:04;34.90;44.30
40660;DHT22;26753;45.544;9.232;2024-01-11T13:12:31;35.30;43.30
40660;DHT22;26753;45.544;9.232;2024-01-11T13:14:56;35.50;42.60
40660;DHT22;26753;45.544;9.232;2024-01-11T13:17:22;36.20;42.00
40660;DHT22;26753;45.544;9.232;2024-01-11T13:19:48;36.50;40.50
40660;DHT22;26753;45.544;9.232;2024-01-11T13:22:14;35.90;40.70
40660;DHT22;26753;45.544;9.232;2024-01-11T13:24:43;35.90;40.30
40660;DHT22;26753;45.544;9.232;2024-01-11T13:27:09;37.00;40.20
40660;DHT22;26753;45.544;9.232;2024-01-11T13:29:35;37.50;39.20
40660;DHT22;26753;45.544;9.232;2024-01-11T13:32:01;36.70;38.80
40660;DHT22;26753;45.544;9.232;2024-01-11T13:34:27;36.60;38.30
40660;DHT22;26753;45.544;9.232;2024-01-11T13:36:52;37.10;38.50
40660;DHT22;26753;45.544;9.232;2024-01-11T13:39:18;37.40;38.50
40660;DHT22;26753;45.544;9.232;2024-01-11T13:41:45;38.20;38.40
40660;DHT22;26753;45.544;9.232;2024-01-11T13:44:11;38.50;37.70
40660;DHT22;26753;45.544;9.232;2024-01-11T13:46:37;39.10;37.40
40660;DHT22;26753;45.544;9.232;2024-01-11T13:49:03;39.30;37.00
40660;DHT22;26753;45.544;9.232;2024-01-11T13:51:30;39.30;36.50
40660;DHT22;26753;45.544;9.232;2024-01-11T13:53:57;38.90;36.40
40660;DHT22;26753;45.544;9.232;2024-01-11T13:56:24;38.50;36.30
40660;DHT22;26753;45.544;9.232;2024-01-11T13:58:50;38.20;36.20
40660;DHT22;26753;45.544;9.232;2024-01-11T14:01:16;37.50;35.80
40660;DHT22;26753;45.544;9.232;2024-01-11T14:03:43;37.50;36.50
40660;DHT22;26753;45.544;9.232;2024-01-11T14:06:09;37.20;36.10
40660;DHT22;26753;45.544;9.232;2024-01-11T14:08:35;37.30;36.40
40660;DHT22;26753;45.544;9.232;2024-01-11T14:11:00;36.90;36.20
40660;DHT22;26753;45.544;9.232;2024-01-11T14:13:26;37.00;36.10
40660;DHT22;26753;45.544;9.232;2024-01-11T14:15:52;37.30;36.30
40660;DHT22;26753;45.544;9.232;2024-01-11T14:18:20;35.90;35.70
40660;DHT22;26753;45.544;9.232;2024-01-11T14:20:46;34.70;36.00
40660;DHT22;26753;45.544;9.232;2024-01-11T14:23:12;35.20;36.50
40660;DHT22;26753;45.544;9.232;2024-01-11T14:25:37;35.70;36.60
40660;DHT22;26753;45.544;9.232;2024-01-11T14:28:03;35.30;36.70
40660;DHT22;26753;45.544;9.232;2024-01-11T14:30:30;35.70;36.20
40660;DHT22;26753;45.544;9.232;2024-01-11T14:32:55;35.60;36.40
40660;DHT22;26753;45.544;9.232;2024-01-11T14:35:21;35.10;36.30
40660;DHT22;26753;45.544;9.232;2024-01-11T14:37:47;35.10;36.40
40660;DHT22;26753;45.544;9.232;2024-01-11T14:40:13;34.80;36.20
40660;DHT22;26753;45.544;9.232;2024-01-11T14:42:39;33.60;36.70
40660;DHT22;26753;45.544;9.232;2024-01-11T14:45:06;32.80;37.20
40660;DHT22;26753;45.544;9.232;2024-01-11T14:47:34;32.20;37.40
40660;DHT22;26753;45.544;9.232;2024-01-11T14:50:03;31.50;37.80
40660;DHT22;26753;45.544;9.232;2024-01-11T14:52:33;31.80;38.10
40660;DHT22;26753;45.544;9.232;2024-01-11T14:55:04;32.30;38.20
40660;DHT22;26753;45.544;9.232;2024-01-11T14:57:31;32.50;37.90
40660;DHT22;26753;45.544;9.232;2024-01-11T14:59:56;32.80;37.90
40660;DHT22;26753;45.544;9.232;2024-01-11T15:02:22;31.90;37.80
40660;DHT22;26753;45.544;9.232;2024-01-11T15:04:48;31.10;38.20
40660;DHT22;26753;45.544;9.232;2024-01-11T15:07:14;30.70;38.70
40660;DHT22;26753;45.544;9.232;2024-01-11T15:09:40;30.60;38.90
40660;DHT22;26753;45.544;9.232;2024-01-11T15:12:06;30.10;38.90
40660;DHT22;26753;45.544;9.232;2024-01-11T15:14:31;30.10;39.10
40660;DHT22;26753;45.544;9.232;2024-01-11T15:16:57;30.40;39.30
40660;DHT22;26753;45.544;9.232;2024-01-11T15:19:24;30.40;39.10
40660;DHT22;26753;45.544;9.232;2024-01-11T15:21:50;28.80;39.50
40660;DHT22;26753;45.544;9.232;2024-01-11T15:24:16;27.90;40.10
40660;DHT22;26753;45.544;9.232;2024-01-11T15:26:44;27.30;40.70
40660;DHT22;26753;45.544;9.232;2024-01-11T15:29:10;24.70;41.70
40660;DHT22;26753;45.544;9.232;2024-01-11T15:31:36;22.30;44.00
40660;DHT22;26753;45.544;9.232;2024-01-11T15:34:04;20.00;46.90
40660;DHT22;26753;45.544;9.232;2024-01-11T15:36:30;18.70;49.60
40660;DHT22;26753;45.544;9.232;2024-01-11T15:38:57;17.50;51.70
40660;DHT22;26753;45.544;9.232;2024-01-11T15:41:23;16.50;53.70
40660;DHT22;26753;45.544;9.232;2024-01-11T15:43:48;15.70;55.50
40660;DHT22;26753;45.544;9.232;2024-01-11T15:46:15;15.40;57.20
40660;DHT22;26753;45.544;9.232;2024-01-11T15:48:42;15.00;57.70
40660;DHT22;26753;45.544;9.232;2024-01-11T15:51:08;14.80;59.00
40660;DHT22;26753;45.544;9.232;2024-01-11T15:53:36;13.60;59.70
40660;DHT22;26753;45.544;9.232;2024-01-11T15:56:01;14.70;61.00
40660;DHT22;26753;45.544;9.232;2024-01-11T15:58:27;13.40;62.10
40660;DHT22;26753;45.544;9.232;2024-01-11T16:05:45;12.90;63.90
40660;DHT22;26753;45.544;9.232;2024-01-11T16:08:11;13.40;64.60
40660;DHT22;26753;45.544;9.232;2024-01-11T16:10:38;14.20;66.50
40660;DHT22;26753;45.544;9.232;2024-01-11T16:13:04;14.40;67.50
40660;DHT22;26753;45.544;9.232;2024-01-11T16:15:29;11.60;68.00
40660;DHT22;26753;45.544;9.232;2024-01-11T16:17:55;12.50;67.90
40660;DHT22;26753;45.544;9.232;2024-01-11T16:20:21;11.70;70.20
40660;DHT22;26753;45.544;9.232;2024-01-11T16:22:47;11.80;71.40
40660;DHT22;26753;45.544;9.232;2024-01-11T16:25:13;12.40;72.30
40660;DHT22;26753;45.544;9.232;2024-01-11T16:27:39;11.40;74.00
40660;DHT22;26753;45.544;9.232;2024-01-11T16:32:32;11.40;74.60
40660;DHT22;26753;45.544;9.232;2024-01-11T16:34:58;12.10;75.60
40660;DHT22;26753;45.544;9.232;2024-01-11T16:37:24;11.90;76.20
40660;DHT22;26753;45.544;9.232;2024-01-11T16:39:50;11.30;77.40
40660;DHT22;26753;45.544;9.232;2024-01-11T16:42:15;10.70;77.00
40660;DHT22;26753;45.544;9.232;2024-01-11T16:44:43;12.20;79.60
40660;DHT22;26753;45.544;9.232;2024-01-11T16:47:09;10.70;78.80
40660;DHT22;26753;45.544;9.232;2024-01-11T16:49:35;11.60;79.70
40660;DHT22;26753;45.544;9.232;2024-01-11T16:52:01;11.60;80.00
40660;DHT22;26753;45.544;9.232;2024-01-11T16:54:30;10.90;82.70
40660;DHT22;26753;45.544;9.232;2024-01-11T16:56:56;11.10;84.00
40660;DHT22;26753;45.544;9.232;2024-01-11T16:59:21;12.00;84.80
40660;DHT22;26753;45.544;9.232;2024-01-11T17:01:47;11.40;85.80
40660;DHT22;26753;45.544;9.232;2024-01-11T17:04:13;12.00;87.10
40660;DHT22;26753;45.544;9.232;2024-01-11T17:06:40;9.50;87.00
40660;DHT22;26753;45.544;9.232;2024-01-11T17:09:05;10.30;89.00
40660;DHT22;26753;45.544;9.232;2024-01-11T17:11:32;10.10;90.00
40660;DHT22;26753;45.544;9.232;2024-01-11T17:14:04;10.10;89.90
40660;DHT22;26753;45.544;9.232;2024-01-11T17:16:30;11.20;90.70
40660;DHT22;26753;45.544;9.232;2024-01-11T17:18:55;11.20;90.80
40660;DHT22;26753;45.544;9.232;2024-01-11T17:21:21;11.70;91.20
40660;DHT22;26753;45.544;9.232;2024-01-11T17:33:31;10.60;94.20
40660;DHT22;26753;45.544;9.232;2024-01-11T17:35:56;12.30;96.40
40660;DHT22;26753;45.544;9.232;2024-01-11T17:38:22;11.00;96.30
40660;DHT22;26753;45.544;9.232;2024-01-11T17:40:47;10.30;97.00
40660;DHT22;26753;45.544;9.232;2024-01-11T17:43:13;10.60;98.50
40660;DHT22;26753;45.544;9.232;2024-01-11T17:45:39;8.50;98.30
40660;DHT22;26753;45.544;9.232;2024-01-11T17:48:05;8.50;99.20
40660;DHT22;26753;45.544;9.232;2024-01-11T17:50:31;9.60;99.10
40660;DHT22;26753;45.544;9.232;2024-01-11T18:00:19;12.30;99.90
40660;DHT22;26753;45.544;9.232;2024-01-11T18:02:44;9.10;99.90
40660;DHT22;26753;45.544;9.232;2024-01-11T18:05:10;9.20;99.90
40660;DHT22;26753;45.544;9.232;2024-01-11T18:10:02;9.30;99.90
40660;DHT22;26753;45.544;9.232;2024-01-11T18:12:28;7.80;99.90
40660;DHT22;26753;45.544;9.232;2024-01-11T18:14:54;11.00;99.90
40660;DHT22;26753;45.544;9.232;2024-01-11T18:17:22;10.10;99.90
40660;DHT22;26753;45.544;9.232;2024-01-11T18:19:48;9.40;99.90
40660;DHT22;26753;45.544;9.232;2024-01-11T18:22:14;6.00;99.90
40660;DHT22;26753;45.544;9.232;2024-01-11T18:27:07;8.60;99.90
40660;DHT22;26753;45.544;9.232;2024-01-11T18:29:42;8.40;99.90
40660;DHT22;26753;45.544;9.232;2024-01-11T18:32:11;8.20;99.90
40660;DHT22;26753;45.544;9.232;2024-01-11T18:34:38;9.70;99.90
40660;DHT22;26753;45.544;9.232;2024-01-11T18:46:55;8.00;99.90
40660;DHT22;26753;45.544;9.232;2024-01-11T18:49:23;8.40;99.90
40660;DHT22;26753;45.544;9.232;2024-01-11T18:54:18;7.40;99.90
40660;DHT22;26753;45.544;9.232;2024-01-11T19:04:03;8.30;99.90
40660;DHT22;26753;45.544;9.232;2024-01-11T19:06:29;9.60;99.90
40660;DHT22;26753;45.544;9.232;2024-01-11T19:11:23;10.30;99.90
40660;DHT22;26753;45.544;9.232;2024-01-11T19:13:49;7.60;99.90
40660;DHT22;26753;45.544;9.232;2024-01-11T19:16:17;6.70;99.90
40660;DHT22;26753;45.544;9.232;2024-01-11T19:21:09;9.80;99.90
40660;DHT22;26753;45.544;9.232;2024-01-11T19:23:35;8.80;99.90
40660;DHT22;26753;45.544;9.232;2024-01-11T19:43:11;8.20;99.90
40660;DHT22;26753;45.544;9.232;2024-01-11T19:45:36;8.60;99.90
40660;DHT22;26753;45.544;9.232;2024-01-11T19:48:02;9.70;99.90
40660;DHT22;26753;45.544;9.232;2024-01-11T19:57:51;10.00;99.90
40660;DHT22;26753;45.544;9.232;2024-01-11T20:00:17;8.30;99.90
40660;DHT22;26753;45.544;9.232;2024-01-11T20:07:38;8.70;99.90
40660;DHT22;26753;45.544;9.232;2024-01-11T20:17:23;10.40;99.90
40660;DHT22;26753;45.544;9.232;2024-01-11T20:19:51;9.10;99.90
40660;DHT22;26753;45.544;9.232;2024-01-11T20:22:18;8.30;99.90
40660;DHT22;26753;45.544;9.232;2024-01-11T20:34:29;8.70;99.90
40660;DHT22;26753;45.544;9.232;2024-01-11T20:39:21;8.70;99.90
40660;DHT22;26753;45.544;9.232;2024-01-11T20:46:41;7.90;99.90
